createdAt,value
2022-09-14T00:01:25.232Z,18.90
2022-09-14T00:03:58.219Z,18.90
2022-09-14T00:06:25.769Z,18.80
2022-09-14T00:08:54.661Z,18.80
2022-09-14T00:11:24.102Z,18.90
2022-09-14T00:13:51.263Z,18.70
2022-09-14T00:16:21.095Z,18.80
2022-09-14T00:18:51.993Z,18.70
2022-09-14T00:21:19.082Z,18.70
2022-09-14T00:23:45.863Z,18.80
2022-09-14T00:26:16.701Z,18.70
2022-09-14T00:28:45.864Z,18.60
2022-09-14T00:31:13.611Z,18.50
2022-09-14T00:33:42.693Z,18.50
2022-09-14T00:36:12.520Z,18.60
2022-09-14T00:38:42.228Z,18.70
2022-09-14T00:41:14.715Z,18.70
2022-09-14T00:44:06.867Z,18.70
2022-09-14T00:46:41.424Z,18.70
2022-09-14T00:49:16.567Z,18.60
2022-09-14T00:52:01.121Z,18.60
2022-09-14T00:54:27.823Z,18.50
2022-09-14T00:56:56.679Z,18.50
2022-09-14T00:59:27.295Z,18.60
2022-09-14T01:01:54.856Z,18.50
2022-09-14T01:04:22.335Z,18.40
2022-09-14T01:07:00.949Z,18.50
2022-09-14T01:09:54.983Z,18.50
2022-09-14T01:12:43.313Z,18.50
2022-09-14T01:15:25.298Z,18.50
2022-09-14T01:18:08.299Z,18.40
2022-09-14T01:20:34.972Z,18.40
2022-09-14T01:23:17.284Z,18.40
2022-09-14T01:26:17.877Z,18.40
2022-09-14T01:28:54.419Z,18.40
2022-09-14T01:32:02.142Z,18.60
2022-09-14T01:34:38.374Z,18.60
2022-09-14T01:37:19.168Z,18.50
2022-09-14T01:39:56.807Z,18.20
2022-09-14T01:42:26.551Z,18.20
2022-09-14T01:44:58.269Z,18.30
2022-09-14T01:47:28.615Z,18.30
2022-09-14T01:50:05.881Z,18.20
2022-09-14T01:52:44.841Z,18.20
2022-09-14T01:55:25.948Z,18.40
2022-09-14T01:58:11.820Z,18.40
2022-09-14T02:00:43.836Z,18.50
2022-09-14T02:03:16.198Z,18.40
2022-09-14T02:05:53.396Z,18.40
2022-09-14T02:08:20.353Z,18.40
2022-09-14T02:10:47.082Z,18.20
2022-09-14T02:13:13.905Z,18.30
2022-09-14T02:15:40.566Z,18.50
2022-09-14T02:18:07.394Z,18.50
2022-09-14T02:20:42.878Z,18.50
2022-09-14T02:23:09.579Z,18.50
2022-09-14T02:25:36.847Z,18.40
2022-09-14T02:28:04.293Z,18.30
2022-09-14T02:30:42.320Z,18.20
2022-09-14T02:33:23.036Z,18.20
2022-09-14T02:35:55.509Z,18.10
2022-09-14T02:38:34.313Z,18.10
2022-09-14T02:41:17.887Z,18.10
2022-09-14T02:44:21.665Z,18.10
2022-09-14T02:46:55.623Z,18.10
2022-09-14T02:49:27.515Z,18.10
2022-09-14T02:52:16.645Z,18.10
2022-09-14T02:55:09.940Z,18.00
2022-09-14T02:58:14.459Z,18.00
2022-09-14T03:00:44.039Z,18.10
2022-09-14T03:03:13.115Z,18.30
2022-09-14T03:05:40.440Z,18.40
2022-09-14T03:08:07.888Z,18.20
2022-09-14T03:10:34.797Z,18.10
2022-09-14T03:13:01.618Z,18.30
2022-09-14T03:15:29.653Z,18.20
2022-09-14T03:17:56.620Z,18.00
2022-09-14T03:20:28.859Z,18.10
2022-09-14T03:22:55.792Z,18.20
2022-09-14T03:25:25.475Z,18.40
2022-09-14T03:27:55.780Z,18.20
2022-09-14T03:30:23.112Z,18.10
2022-09-14T03:32:50.276Z,18.10
2022-09-14T03:35:17.530Z,18.20
2022-09-14T03:37:45.708Z,18.10
2022-09-14T03:40:19.286Z,18.10
2022-09-14T03:42:50.441Z,18.10
2022-09-14T03:45:19.013Z,18.10
2022-09-14T03:47:46.875Z,18.00
2022-09-14T03:50:15.091Z,18.10
2022-09-14T03:52:41.813Z,17.90
2022-09-14T03:55:09.523Z,18.00
2022-09-14T03:57:36.691Z,18.00
2022-09-14T04:00:05.705Z,17.90
2022-09-14T04:02:32.500Z,17.90
2022-09-14T04:04:59.237Z,17.90
2022-09-14T04:07:26.148Z,17.90
2022-09-14T04:09:52.912Z,17.80
2022-09-14T04:12:19.664Z,17.90
2022-09-14T04:14:46.383Z,17.80
2022-09-14T04:17:13.041Z,17.70
2022-09-14T04:19:41.557Z,17.90
2022-09-14T04:22:08.994Z,17.90
2022-09-14T04:24:35.805Z,18.10
2022-09-14T04:27:02.548Z,18.20
2022-09-14T04:29:30.583Z,18.00
2022-09-14T04:31:58.021Z,18.00
2022-09-14T04:34:25.140Z,18.10
2022-09-14T04:36:51.816Z,18.10
2022-09-14T04:39:20.121Z,18.10
2022-09-14T04:41:47.135Z,18.10
2022-09-14T04:44:13.963Z,18.00
2022-09-14T04:46:46.445Z,18.10
2022-09-14T04:49:14.896Z,18.10
2022-09-14T04:51:41.637Z,18.20
2022-09-14T04:54:09.727Z,18.20
2022-09-14T04:56:37.323Z,18.20
2022-09-14T04:59:05.682Z,18.10
2022-09-14T05:01:36.654Z,18.10
2022-09-14T05:04:04.398Z,18.10
2022-09-14T05:06:33.636Z,18.20
2022-09-14T05:09:03.133Z,18.20
2022-09-14T05:11:34.107Z,18.10
2022-09-14T05:14:02.075Z,18.00
2022-09-14T05:16:31.378Z,17.90
2022-09-14T05:19:01.977Z,18.00
2022-09-14T05:21:31.278Z,18.30
2022-09-14T05:24:12.546Z,18.50
2022-09-14T05:26:39.443Z,18.60
2022-09-14T05:29:06.168Z,18.50
2022-09-14T05:31:33.762Z,18.50
2022-09-14T05:34:00.735Z,18.60
2022-09-14T05:36:27.584Z,18.60
2022-09-14T05:38:54.499Z,18.60
2022-09-14T05:41:21.163Z,18.60
2022-09-14T05:43:47.897Z,18.70
2022-09-14T05:46:17.246Z,18.60
2022-09-14T05:48:44.067Z,18.60
2022-09-14T05:51:16.541Z,18.60
2022-09-14T05:53:47.544Z,18.60
2022-09-14T05:56:14.731Z,18.60
2022-09-14T05:58:42.542Z,18.70
2022-09-14T06:01:11.927Z,18.80
2022-09-14T06:03:40.916Z,18.80
2022-09-14T06:06:09.061Z,18.70
2022-09-14T06:08:35.925Z,18.80
2022-09-14T06:11:14.991Z,18.90
2022-09-14T06:13:42.458Z,18.80
2022-09-14T06:16:12.134Z,18.90
2022-09-14T06:18:39.861Z,18.90
2022-09-14T06:21:07.214Z,18.80
2022-09-14T06:23:34.829Z,18.80
2022-09-14T06:26:03.475Z,18.80
2022-09-14T06:28:30.799Z,18.90
2022-09-14T06:30:57.656Z,18.90
2022-09-14T06:33:25.006Z,18.90
2022-09-14T06:36:12.705Z,18.80
2022-09-14T06:38:42.480Z,18.90
2022-09-14T06:41:12.206Z,18.90
2022-09-14T06:43:41.530Z,18.90
2022-09-14T06:46:12.041Z,19.00
2022-09-14T06:48:44.120Z,18.70
2022-09-14T06:51:23.012Z,18.90
2022-09-14T06:53:50.783Z,19.30
2022-09-14T06:56:18.477Z,19.20
2022-09-14T06:58:45.636Z,19.20
2022-09-14T07:01:15.604Z,19.30
2022-09-14T07:03:47.102Z,19.20
2022-09-14T07:06:17.219Z,19.10
2022-09-14T07:08:44.491Z,18.90
2022-09-14T07:11:12.727Z,18.90
2022-09-14T07:13:40.912Z,19.10
2022-09-14T07:16:08.160Z,19.10
2022-09-14T07:18:35.884Z,19.20
2022-09-14T07:21:07.136Z,19.20
2022-09-14T07:23:36.208Z,19.10
2022-09-14T07:26:11.785Z,19.10
2022-09-14T07:28:39.513Z,19.10
2022-09-14T07:31:18.947Z,19.30
2022-09-14T07:33:46.300Z,19.10
2022-09-14T07:36:14.321Z,18.80
2022-09-14T07:38:52.096Z,18.80
2022-09-14T07:41:25.594Z,19.00
2022-09-14T07:43:56.628Z,19.10
2022-09-14T07:46:24.280Z,19.10
2022-09-14T07:49:02.319Z,19.10
2022-09-14T07:51:30.460Z,18.90
2022-09-14T07:53:59.671Z,18.90
2022-09-14T07:56:26.444Z,18.10
2022-09-14T07:59:07.144Z,18.10
2022-09-14T08:01:43.323Z,18.10
2022-09-14T08:04:10.132Z,18.10
2022-09-14T08:06:37.363Z,17.70
2022-09-14T08:09:07.545Z,17.60
2022-09-14T08:11:35.268Z,17.40
2022-09-14T08:14:04.688Z,18.00
2022-09-14T08:16:33.293Z,17.70
2022-09-14T08:19:02.552Z,17.20
2022-09-14T08:21:32.108Z,17.20
2022-09-14T08:23:59.498Z,17.20
2022-09-14T08:26:27.217Z,17.20
2022-09-14T08:28:55.323Z,17.20
2022-09-14T08:31:24.696Z,17.30
2022-09-14T08:33:57.210Z,17.10
2022-09-14T08:36:25.987Z,17.10
2022-09-14T08:38:52.760Z,17.10
2022-09-14T08:41:31.829Z,17.30
2022-09-14T08:44:13.416Z,17.40
2022-09-14T08:47:02.748Z,17.20
2022-09-14T08:49:51.859Z,17.20
2022-09-14T08:52:35.761Z,17.40
2022-09-14T08:55:37.424Z,17.20
2022-09-14T08:58:25.095Z,17.20
2022-09-14T09:01:16.997Z,17.00
2022-09-14T09:03:57.193Z,17.30
2022-09-14T09:06:44.349Z,17.40
2022-09-14T09:09:29.234Z,17.40
2022-09-14T09:11:56.255Z,17.00
2022-09-14T09:14:38.872Z,16.90
2022-09-14T09:17:16.462Z,17.10
2022-09-14T09:19:59.643Z,17.20
2022-09-14T09:22:30.151Z,17.10
2022-09-14T09:24:58.544Z,17.00
2022-09-14T09:27:27.771Z,17.00
2022-09-14T09:29:54.592Z,17.10
2022-09-14T09:32:24.160Z,16.80
2022-09-14T09:34:51.608Z,16.90
2022-09-14T09:37:21.686Z,17.00
2022-09-14T09:39:49.389Z,17.00
2022-09-14T09:42:26.943Z,17.30
2022-09-14T09:45:01.240Z,17.50
2022-09-14T09:47:39.452Z,17.50
2022-09-14T09:50:18.788Z,17.20
2022-09-14T09:52:57.654Z,17.50
2022-09-14T09:55:28.327Z,17.20
2022-09-14T09:57:54.988Z,17.30
2022-09-14T10:00:26.839Z,17.40
2022-09-14T10:02:54.858Z,17.30
2022-09-14T10:05:23.705Z,17.60
2022-09-14T10:07:50.323Z,17.60
2022-09-14T10:10:19.934Z,17.50
2022-09-14T10:12:52.337Z,17.60
2022-09-14T10:15:26.200Z,17.60
2022-09-14T10:18:08.891Z,17.40
2022-09-14T10:20:37.848Z,17.50
2022-09-14T10:23:19.828Z,17.70
2022-09-14T10:25:48.848Z,17.90
2022-09-14T10:28:30.947Z,17.70
2022-09-14T10:31:15.961Z,17.60
2022-09-14T10:33:42.963Z,17.50
2022-09-14T10:36:15.724Z,17.70
2022-09-14T10:39:01.154Z,17.60
2022-09-14T10:41:52.623Z,17.70
2022-09-14T10:44:59.470Z,17.70
2022-09-14T10:47:29.090Z,17.70
2022-09-14T10:50:28.032Z,17.60
2022-09-14T10:53:34.284Z,17.70
2022-09-14T10:56:21.227Z,17.80
2022-09-14T10:59:15.557Z,17.90
2022-09-14T11:02:05.876Z,17.60
2022-09-14T11:05:05.792Z,17.80
2022-09-14T11:08:14.630Z,17.80
2022-09-14T11:11:16.957Z,17.70
2022-09-14T11:13:55.362Z,17.90
2022-09-14T11:16:47.913Z,18.10
2022-09-14T11:19:24.467Z,18.10
2022-09-14T11:22:05.912Z,18.10
2022-09-14T11:24:57.164Z,18.00
2022-09-14T11:27:41.519Z,18.10
2022-09-14T11:30:21.324Z,18.10
2022-09-14T11:33:07.358Z,18.30
2022-09-14T11:35:48.312Z,18.10
2022-09-14T11:38:31.148Z,18.10
2022-09-14T11:41:03.706Z,18.00
2022-09-14T11:43:59.109Z,18.00
2022-09-14T11:46:36.439Z,18.10
2022-09-14T11:49:39.789Z,18.00
2022-09-14T11:52:21.641Z,18.20
2022-09-14T11:54:50.309Z,18.30
2022-09-14T11:57:27.904Z,18.30
2022-09-14T11:59:59.775Z,18.30
2022-09-14T12:02:26.493Z,18.30
2022-09-14T12:05:05.638Z,18.20
2022-09-14T12:07:47.351Z,18.30
2022-09-14T12:10:14.050Z,18.30
2022-09-14T12:12:53.179Z,18.40
2022-09-14T12:15:28.901Z,18.40
2022-09-14T12:18:04.188Z,18.40
2022-09-14T12:20:35.506Z,18.50
2022-09-14T12:23:25.299Z,18.60
2022-09-14T12:25:57.239Z,18.40
2022-09-14T12:28:43.541Z,18.60
2022-09-14T12:31:28.589Z,18.60
2022-09-14T12:34:04.970Z,18.70
2022-09-14T12:36:52.121Z,18.60
2022-09-14T12:39:35.716Z,18.60
2022-09-14T12:42:25.472Z,18.60
2022-09-14T12:44:52.556Z,18.70
2022-09-14T12:47:25.436Z,18.60
2022-09-14T12:50:13.572Z,18.70
2022-09-14T12:53:26.839Z,18.80
2022-09-14T12:56:00.640Z,18.80
2022-09-14T12:58:34.866Z,18.70
2022-09-14T13:01:34.356Z,18.80
2022-09-14T13:04:02.925Z,18.80
2022-09-14T13:06:40.759Z,18.70
2022-09-14T13:09:22.653Z,19.00
2022-09-14T13:12:03.020Z,19.10
2022-09-14T13:14:55.870Z,19.10
2022-09-14T13:17:24.123Z,19.10
2022-09-14T13:19:59.239Z,19.10
2022-09-14T13:22:29.369Z,19.10
2022-09-14T13:24:58.892Z,19.20
2022-09-14T13:27:34.558Z,19.10
2022-09-14T13:30:20.459Z,19.10
2022-09-14T13:32:50.574Z,19.10
2022-09-14T13:36:03.602Z,19.10
2022-09-14T13:38:33.338Z,19.30
2022-09-14T13:41:19.820Z,19.30
2022-09-14T13:43:51.111Z,19.20
2022-09-14T13:46:20.440Z,19.40
2022-09-14T13:48:48.216Z,19.40
2022-09-14T13:51:15.686Z,19.40
2022-09-14T13:53:50.004Z,19.50
2022-09-14T13:56:25.145Z,19.50
2022-09-14T13:59:16.613Z,19.50
2022-09-14T14:01:50.591Z,19.50
2022-09-14T14:04:30.655Z,19.50
2022-09-14T14:07:17.494Z,19.60
2022-09-14T14:09:53.256Z,19.50
2022-09-14T14:12:33.269Z,19.50
2022-09-14T14:15:02.542Z,19.70
2022-09-14T14:17:29.157Z,19.70
2022-09-14T14:19:58.507Z,19.70
2022-09-14T14:22:33.875Z,19.80
2022-09-14T14:25:16.996Z,19.80
2022-09-14T14:27:46.634Z,20.10
2022-09-14T14:30:17.966Z,19.70
2022-09-14T14:32:50.954Z,19.60
2022-09-14T14:35:22.340Z,19.80
2022-09-14T14:37:50.251Z,19.70
2022-09-14T14:40:17.906Z,19.60
2022-09-14T14:42:45.443Z,19.60
2022-09-14T14:45:18.874Z,19.80
2022-09-14T14:47:50.651Z,19.60
2022-09-14T14:50:26.633Z,19.50
2022-09-14T14:52:53.859Z,19.90
2022-09-14T14:55:21.616Z,20.00
2022-09-14T14:57:49.712Z,20.00
2022-09-14T15:00:24.342Z,20.00
2022-09-14T15:02:51.577Z,19.90
2022-09-14T15:05:19.028Z,19.90
2022-09-14T15:07:45.896Z,19.90
2022-09-14T15:10:16.542Z,19.70
2022-09-14T15:12:43.903Z,19.90
2022-09-14T15:15:16.444Z,19.90
2022-09-14T15:17:43.527Z,20.00
2022-09-14T15:20:11.195Z,19.90
2022-09-14T15:22:38.180Z,19.80
2022-09-14T15:25:05.927Z,20.00
2022-09-14T15:27:33.162Z,19.70
2022-09-14T15:30:00.109Z,19.90
2022-09-14T15:32:26.947Z,20.00
2022-09-14T15:34:53.921Z,19.90
2022-09-14T15:37:20.594Z,20.00
2022-09-14T15:39:50.510Z,20.00
2022-09-14T15:42:18.537Z,19.90
2022-09-14T15:44:46.673Z,19.70
2022-09-14T15:47:14.784Z,19.90
2022-09-14T15:49:42.452Z,19.70
2022-09-14T15:52:10.306Z,19.60
2022-09-14T15:54:38.919Z,19.60
2022-09-14T15:57:08.125Z,19.80
2022-09-14T15:59:34.979Z,19.80
2022-09-14T16:02:02.109Z,19.80
2022-09-14T16:04:29.035Z,19.60
2022-09-14T16:06:55.695Z,19.70
2022-09-14T16:09:23.135Z,19.70
2022-09-14T16:11:50.162Z,19.70
2022-09-14T16:14:17.268Z,19.60
2022-09-14T16:16:44.005Z,19.60
2022-09-14T16:19:13.808Z,19.80
2022-09-14T16:21:42.273Z,19.80
2022-09-14T16:24:16.670Z,19.90
2022-09-14T16:26:44.119Z,19.50
2022-09-14T16:29:13.350Z,19.60
2022-09-14T16:31:41.939Z,19.60
2022-09-14T16:34:14.179Z,19.80
2022-09-14T16:36:41.645Z,19.80
2022-09-14T16:39:12.968Z,19.70
2022-09-14T16:41:41.772Z,19.40
2022-09-14T16:44:12.999Z,19.60
2022-09-14T16:46:39.856Z,19.70
2022-09-14T16:49:06.750Z,19.70
2022-09-14T16:51:34.019Z,19.70
2022-09-14T16:54:01.536Z,19.90
2022-09-14T16:56:31.549Z,19.70
2022-09-14T16:58:59.749Z,19.70
2022-09-14T17:01:33.765Z,19.60
2022-09-14T17:04:08.396Z,19.80
2022-09-14T17:06:36.663Z,19.60
2022-09-14T17:09:06.297Z,19.60
2022-09-14T17:11:34.361Z,19.70
2022-09-14T17:14:01.691Z,19.70
2022-09-14T17:16:29.469Z,19.70
2022-09-14T17:19:02.308Z,19.60
2022-09-14T17:21:35.555Z,19.60
2022-09-14T17:24:04.443Z,19.60
2022-09-14T17:26:32.518Z,19.70
2022-09-14T17:29:00.163Z,19.80
2022-09-14T17:31:31.957Z,19.70
2022-09-14T17:34:00.489Z,19.90
2022-09-14T17:36:27.773Z,20.00
2022-09-14T17:38:57.893Z,20.10
2022-09-14T17:41:28.048Z,20.10
2022-09-14T17:43:57.763Z,20.10
2022-09-14T17:46:25.123Z,20.10
2022-09-14T17:48:52.180Z,20.20
2022-09-14T17:51:24.272Z,20.20
2022-09-14T17:53:53.598Z,20.20
2022-09-14T17:56:22.271Z,20.10
2022-09-14T17:58:56.867Z,20.00
2022-09-14T18:01:23.717Z,19.90
2022-09-14T18:03:54.175Z,19.80
2022-09-14T18:06:23.778Z,19.80
2022-09-14T18:09:02.981Z,19.70
2022-09-14T18:11:31.115Z,19.70
2022-09-14T18:13:58.101Z,19.60
2022-09-14T18:16:25.648Z,19.70
2022-09-14T18:18:52.417Z,19.70
2022-09-14T18:21:19.717Z,19.70
2022-09-14T18:23:51.164Z,19.70
2022-09-14T18:26:18.383Z,19.70
2022-09-14T18:28:46.452Z,19.70
2022-09-14T18:31:16.014Z,19.70
2022-09-14T18:33:52.064Z,19.60
2022-09-14T18:36:20.199Z,19.60
2022-09-14T18:38:48.634Z,19.60
2022-09-14T18:41:17.030Z,19.70
2022-09-14T18:43:46.181Z,19.70
2022-09-14T18:46:13.936Z,19.70
2022-09-14T18:48:43.640Z,19.70
2022-09-14T18:51:12.677Z,19.80
2022-09-14T18:53:39.993Z,19.80
2022-09-14T18:56:12.389Z,19.70
2022-09-14T18:58:41.452Z,19.70
2022-09-14T19:01:09.356Z,19.60
2022-09-14T19:03:38.026Z,19.60
2022-09-14T19:06:13.170Z,19.60
2022-09-14T19:08:40.697Z,19.60
2022-09-14T19:11:10.149Z,19.50
2022-09-14T19:13:54.860Z,19.60
2022-09-14T19:16:29.958Z,19.60
2022-09-14T19:18:57.320Z,19.60
2022-09-14T19:21:26.501Z,19.60
2022-09-14T19:24:06.187Z,19.60
2022-09-14T19:26:39.074Z,19.60
2022-09-14T19:29:10.058Z,19.60
2022-09-14T19:31:37.195Z,19.60
2022-09-14T19:34:05.029Z,19.70
2022-09-14T19:36:34.828Z,19.60
2022-09-14T19:39:02.473Z,19.60
2022-09-14T19:41:30.872Z,19.60
2022-09-14T19:43:58.039Z,19.60
2022-09-14T19:46:26.315Z,19.60
2022-09-14T19:48:53.681Z,19.60
2022-09-14T19:51:23.209Z,19.90
2022-09-14T19:53:52.151Z,19.90
2022-09-14T19:56:21.713Z,19.80
2022-09-14T19:58:50.327Z,19.80
2022-09-14T20:01:19.298Z,19.80
2022-09-14T20:03:46.979Z,20.00
2022-09-14T20:06:19.545Z,20.10
2022-09-14T20:08:47.332Z,20.10
2022-09-14T20:11:19.757Z,20.20
2022-09-14T20:13:50.105Z,20.20
2022-09-14T20:16:21.200Z,20.20
2022-09-14T20:18:49.190Z,20.20
2022-09-14T20:21:19.289Z,20.20
2022-09-14T20:24:11.404Z,20.20
2022-09-14T20:26:33.415Z,20.20
2022-09-14T20:29:01.244Z,20.20
2022-09-14T20:31:29.323Z,20.30
2022-09-14T20:33:57.234Z,20.20
2022-09-14T20:36:25.496Z,20.30
2022-09-14T20:38:54.533Z,20.30
2022-09-14T20:41:24.187Z,20.30
2022-09-14T20:43:51.768Z,20.20
2022-09-14T20:46:21.693Z,20.20
2022-09-14T20:48:49.444Z,20.20
2022-09-14T20:51:20.624Z,20.20
2022-09-14T20:53:47.952Z,20.20
2022-09-14T20:56:20.239Z,20.10
2022-09-14T20:58:47.430Z,20.10
2022-09-14T21:01:17.482Z,20.20
2022-09-14T21:03:45.929Z,20.20
2022-09-14T21:06:20.891Z,20.20
2022-09-14T21:08:48.559Z,20.20
2022-09-14T21:11:21.792Z,20.20
2022-09-14T21:13:49.691Z,20.20
2022-09-14T21:16:32.230Z,20.20
2022-09-14T21:19:01.584Z,20.10
2022-09-14T21:21:28.812Z,20.10
2022-09-14T21:23:57.077Z,20.10
2022-09-14T21:26:25.270Z,20.10
2022-09-14T21:28:56.960Z,20.10
2022-09-14T21:31:24.640Z,20.10
2022-09-14T21:33:54.260Z,20.10
2022-09-14T21:36:26.847Z,20.10
2022-09-14T21:38:56.956Z,20.10
2022-09-14T21:41:26.615Z,20.10
2022-09-14T21:43:53.567Z,20.10
2022-09-14T21:46:21.583Z,20.10
2022-09-14T21:48:48.426Z,20.10
2022-09-14T21:51:27.921Z,20.10
2022-09-14T21:54:05.032Z,20.00
2022-09-14T21:56:34.119Z,20.00
2022-09-14T21:59:03.028Z,20.00
2022-09-14T22:01:30.480Z,20.00
2022-09-14T22:03:58.160Z,20.00
2022-09-14T22:06:27.822Z,20.00
2022-09-14T22:08:55.845Z,20.00
2022-09-14T22:11:24.795Z,20.00
2022-09-14T22:13:56.005Z,20.00
2022-09-14T22:16:23.838Z,19.90
2022-09-14T22:18:58.700Z,19.90
2022-09-14T22:21:27.467Z,19.90
2022-09-14T22:23:56.522Z,19.90
2022-09-14T22:26:23.799Z,19.90
2022-09-14T22:28:51.700Z,19.90
2022-09-14T22:31:21.316Z,19.90
2022-09-14T22:33:48.709Z,19.90
2022-09-14T22:36:16.081Z,19.90
2022-09-14T22:38:42.876Z,19.90
2022-09-14T22:41:18.499Z,19.80
2022-09-14T22:43:46.242Z,19.80
2022-09-14T22:46:13.819Z,19.80
2022-09-14T22:48:41.045Z,19.80
2022-09-14T22:51:10.270Z,19.70
2022-09-14T22:53:37.547Z,19.80
2022-09-14T22:56:20.511Z,19.70
2022-09-14T22:58:48.553Z,19.70
2022-09-14T23:01:18.614Z,19.70
2022-09-14T23:03:45.480Z,19.70
2022-09-14T23:06:12.593Z,19.70
2022-09-14T23:08:39.974Z,19.70
2022-09-14T23:11:11.265Z,19.70
2022-09-14T23:13:39.905Z,19.70
2022-09-14T23:16:14.706Z,19.70
2022-09-14T23:18:41.853Z,19.60
2022-09-14T23:21:09.275Z,19.60
2022-09-14T23:23:38.100Z,19.70
2022-09-14T23:26:06.975Z,19.60
2022-09-14T23:28:33.817Z,19.60
2022-09-14T23:31:00.640Z,19.60
2022-09-14T23:33:28.772Z,19.60
2022-09-14T23:35:55.829Z,19.60
2022-09-14T23:38:23.136Z,19.60
2022-09-14T23:40:50.236Z,19.60
2022-09-14T23:43:18.271Z,19.60
2022-09-14T23:45:46.461Z,19.60
2022-09-14T23:48:13.908Z,19.60
2022-09-14T23:50:40.839Z,19.60
2022-09-14T23:53:07.925Z,19.60
2022-09-14T23:55:34.873Z,19.60
2022-09-14T23:58:01.533Z,19.60
